sensor_id;sensor_type;location;lat;lon;timestamp;P1;durP1;ratioP1;P2;durP2;ratioP2
14611;SDS011;7392;52.078;11.650;2023-01-13T00:00:25;0.50;;;0.23;;
14611;SDS011;7392;52.078;11.650;2023-01-13T00:02:52;0.20;;;0.20;;
14611;SDS011;7392;52.078;11.650;2023-01-13T00:05:20;0.30;;;0.30;;
14611;SDS011;7392;52.078;11.650;2023-01-13T00:07:48;0.30;;;0.20;;
14611;SDS011;7392;52.078;11.650;2023-01-13T00:10:17;0.50;;;0.40;;
14611;SDS011;7392;52.078;11.650;2023-01-13T00:12:45;0.83;;;0.37;;
14611;SDS011;7392;52.078;11.650;2023-01-13T00:15:12;0.87;;;0.17;;
14611;SDS011;7392;52.078;11.650;2023-01-13T00:17:40;0.30;;;0.20;;
14611;SDS011;7392;52.078;11.650;2023-01-13T00:20:08;0.10;;;0.10;;
14611;SDS011;7392;52.078;11.650;2023-01-13T00:22:37;0.30;;;0.20;;
14611;SDS011;7392;52.078;11.650;2023-01-13T00:25:04;0.60;;;0.40;;
14611;SDS011;7392;52.078;11.650;2023-01-13T00:27:34;0.20;;;0.20;;
14611;SDS011;7392;52.078;11.650;2023-01-13T00:30:02;0.93;;;0.30;;
14611;SDS011;7392;52.078;11.650;2023-01-13T00:32:31;0.30;;;0.30;;
14611;SDS011;7392;52.078;11.650;2023-01-13T00:34:58;0.97;;;0.40;;
14611;SDS011;7392;52.078;11.650;2023-01-13T00:37:26;0.23;;;0.20;;
14611;SDS011;7392;52.078;11.650;2023-01-13T00:39:54;0.17;;;0.17;;
14611;SDS011;7392;52.078;11.650;2023-01-13T00:42:23;0.63;;;0.30;;
14611;SDS011;7392;52.078;11.650;2023-01-13T00:45:10;0.23;;;0.23;;
14611;SDS011;7392;52.078;11.650;2023-01-13T00:47:37;2.83;;;0.40;;
14611;SDS011;7392;52.078;11.650;2023-01-13T00:50:05;0.27;;;0.13;;
14611;SDS011;7392;52.078;11.650;2023-01-13T00:52:33;0.30;;;0.30;;
14611;SDS011;7392;52.078;11.650;2023-01-13T00:55:01;0.40;;;0.30;;
14611;SDS011;7392;52.078;11.650;2023-01-13T00:57:29;0.40;;;0.40;;
14611;SDS011;7392;52.078;11.650;2023-01-13T00:59:56;0.53;;;0.23;;
14611;SDS011;7392;52.078;11.650;2023-01-13T01:02:25;0.27;;;0.20;;
14611;SDS011;7392;52.078;11.650;2023-01-13T01:04:53;0.60;;;0.40;;
14611;SDS011;7392;52.078;11.650;2023-01-13T01:07:21;0.03;;;0.03;;
14611;SDS011;7392;52.078;11.650;2023-01-13T01:09:48;0.80;;;0.60;;
14611;SDS011;7392;52.078;11.650;2023-01-13T01:12:16;0.67;;;0.20;;
14611;SDS011;7392;52.078;11.650;2023-01-13T01:14:44;0.37;;;0.30;;
14611;SDS011;7392;52.078;11.650;2023-01-13T01:17:11;0.20;;;0.20;;
14611;SDS011;7392;52.078;11.650;2023-01-13T01:19:40;0.87;;;0.40;;
14611;SDS011;7392;52.078;11.650;2023-01-13T01:22:08;0.60;;;0.40;;
14611;SDS011;7392;52.078;11.650;2023-01-13T01:24:36;0.30;;;0.30;;
14611;SDS011;7392;52.078;11.650;2023-01-13T01:27:03;0.73;;;0.50;;
14611;SDS011;7392;52.078;11.650;2023-01-13T01:29:31;0.67;;;0.30;;
14611;SDS011;7392;52.078;11.650;2023-01-13T01:31:59;0.33;;;0.30;;
14611;SDS011;7392;52.078;11.650;2023-01-13T01:34:26;0.40;;;0.40;;
14611;SDS011;7392;52.078;11.650;2023-01-13T01:36:55;0.50;;;0.30;;
14611;SDS011;7392;52.078;11.650;2023-01-13T01:39:23;0.40;;;0.40;;
14611;SDS011;7392;52.078;11.650;2023-01-13T01:41:51;0.30;;;0.30;;
14611;SDS011;7392;52.078;11.650;2023-01-13T01:47:22;0.33;;;0.30;;
14611;SDS011;7392;52.078;11.650;2023-01-13T01:49:51;0.17;;;0.17;;
14611;SDS011;7392;52.078;11.650;2023-01-13T01:52:21;1.00;;;0.30;;
14611;SDS011;7392;52.078;11.650;2023-01-13T01:54:53;0.50;;;0.50;;
14611;SDS011;7392;52.078;11.650;2023-01-13T01:57:26;0.30;;;0.30;;
14611;SDS011;7392;52.078;11.650;2023-01-13T01:59:57;0.20;;;0.20;;
14611;SDS011;7392;52.078;11.650;2023-01-13T02:02:37;0.40;;;0.30;;
14611;SDS011;7392;52.078;11.650;2023-01-13T02:05:07;1.43;;;0.40;;
14611;SDS011;7392;52.078;11.650;2023-01-13T02:07:37;0.30;;;0.30;;
14611;SDS011;7392;52.078;11.650;2023-01-13T02:10:08;0.67;;;0.37;;
14611;SDS011;7392;52.078;11.650;2023-01-13T02:12:39;0.20;;;0.20;;
14611;SDS011;7392;52.078;11.650;2023-01-13T02:15:09;0.57;;;0.30;;
14611;SDS011;7392;52.078;11.650;2023-01-13T02:17:44;0.20;;;0.20;;
14611;SDS011;7392;52.078;11.650;2023-01-13T02:23:32;0.47;;;0.20;;
14611;SDS011;7392;52.078;11.650;2023-01-13T02:26:33;0.20;;;0.20;;
14611;SDS011;7392;52.078;11.650;2023-01-13T02:29:27;0.30;;;0.13;;
14611;SDS011;7392;52.078;11.650;2023-01-13T02:32:27;0.30;;;0.30;;
14611;SDS011;7392;52.078;11.650;2023-01-13T02:35:01;0.17;;;0.17;;
14611;SDS011;7392;52.078;11.650;2023-01-13T02:37:35;0.10;;;0.10;;
14611;SDS011;7392;52.078;11.650;2023-01-13T02:40:07;0.20;;;0.20;;
14611;SDS011;7392;52.078;11.650;2023-01-13T02:42:39;0.20;;;0.20;;
14611;SDS011;7392;52.078;11.650;2023-01-13T02:45:31;0.53;;;0.30;;
14611;SDS011;7392;52.078;11.650;2023-01-13T02:48:03;0.20;;;0.20;;
14611;SDS011;7392;52.078;11.650;2023-01-13T02:50:34;0.20;;;0.20;;
14611;SDS011;7392;52.078;11.650;2023-01-13T02:53:07;0.20;;;0.20;;
14611;SDS011;7392;52.078;11.650;2023-01-13T02:55:40;0.10;;;0.10;;
14611;SDS011;7392;52.078;11.650;2023-01-13T02:58:12;2.60;;;0.43;;
14611;SDS011;7392;52.078;11.650;2023-01-13T03:00:44;0.47;;;0.40;;
14611;SDS011;7392;52.078;11.650;2023-01-13T03:03:14;0.40;;;0.20;;
14611;SDS011;7392;52.078;11.650;2023-01-13T03:05:42;0.57;;;0.30;;
14611;SDS011;7392;52.078;11.650;2023-01-13T03:08:15;0.57;;;0.30;;
14611;SDS011;7392;52.078;11.650;2023-01-13T03:10:55;0.70;;;0.50;;
14611;SDS011;7392;52.078;11.650;2023-01-13T03:13:34;0.40;;;0.40;;
14611;SDS011;7392;52.078;11.650;2023-01-13T03:16:28;0.57;;;0.50;;
14611;SDS011;7392;52.078;11.650;2023-01-13T03:19:05;0.20;;;0.20;;
14611;SDS011;7392;52.078;11.650;2023-01-13T03:21:43;1.03;;;0.37;;
14611;SDS011;7392;52.078;11.650;2023-01-13T03:24:19;0.83;;;0.30;;
14611;SDS011;7392;52.078;11.650;2023-01-13T03:26:50;1.37;;;0.43;;
14611;SDS011;7392;52.078;11.650;2023-01-13T03:29:24;0.30;;;0.20;;
14611;SDS011;7392;52.078;11.650;2023-01-13T03:32:00;0.20;;;0.20;;
14611;SDS011;7392;52.078;11.650;2023-01-13T03:34:33;0.27;;;0.20;;
14611;SDS011;7392;52.078;11.650;2023-01-13T03:37:06;0.67;;;0.30;;
14611;SDS011;7392;52.078;11.650;2023-01-13T03:39:36;0.30;;;0.20;;
14611;SDS011;7392;52.078;11.650;2023-01-13T03:42:10;0.60;;;0.40;;
14611;SDS011;7392;52.078;11.650;2023-01-13T03:44:45;0.43;;;0.30;;
14611;SDS011;7392;52.078;11.650;2023-01-13T03:47:18;0.73;;;0.20;;
14611;SDS011;7392;52.078;11.650;2023-01-13T03:49:50;0.30;;;0.20;;
14611;SDS011;7392;52.078;11.650;2023-01-13T03:52:24;0.57;;;0.30;;
14611;SDS011;7392;52.078;11.650;2023-01-13T03:54:55;0.30;;;0.30;;
14611;SDS011;7392;52.078;11.650;2023-01-13T03:57:28;1.10;;;0.30;;
14611;SDS011;7392;52.078;11.650;2023-01-13T04:00:03;0.20;;;0.20;;
14611;SDS011;7392;52.078;11.650;2023-01-13T04:02:41;0.37;;;0.20;;
14611;SDS011;7392;52.078;11.650;2023-01-13T04:05:16;0.17;;;0.17;;
14611;SDS011;7392;52.078;11.650;2023-01-13T04:07:49;0.30;;;0.30;;
14611;SDS011;7392;52.078;11.650;2023-01-13T04:10:22;0.20;;;0.10;;
14611;SDS011;7392;52.078;11.650;2023-01-13T04:12:55;0.20;;;0.20;;
14611;SDS011;7392;52.078;11.650;2023-01-13T04:15:28;0.20;;;0.20;;
14611;SDS011;7392;52.078;11.650;2023-01-13T04:18:09;0.17;;;0.13;;
14611;SDS011;7392;52.078;11.650;2023-01-13T04:20:39;0.30;;;0.20;;
14611;SDS011;7392;52.078;11.650;2023-01-13T04:23:08;0.40;;;0.20;;
14611;SDS011;7392;52.078;11.650;2023-01-13T04:25:36;0.50;;;0.30;;
14611;SDS011;7392;52.078;11.650;2023-01-13T04:28:04;0.67;;;0.20;;
14611;SDS011;7392;52.078;11.650;2023-01-13T04:30:31;0.63;;;0.33;;
14611;SDS011;7392;52.078;11.650;2023-01-13T04:32:59;0.20;;;0.10;;
14611;SDS011;7392;52.078;11.650;2023-01-13T04:35:28;0.57;;;0.30;;
14611;SDS011;7392;52.078;11.650;2023-01-13T04:37:55;0.70;;;0.27;;
14611;SDS011;7392;52.078;11.650;2023-01-13T04:40:23;0.10;;;0.10;;
14611;SDS011;7392;52.078;11.650;2023-01-13T04:42:51;0.73;;;0.40;;
14611;SDS011;7392;52.078;11.650;2023-01-13T04:45:18;0.40;;;0.20;;
14611;SDS011;7392;52.078;11.650;2023-01-13T04:47:46;0.20;;;0.20;;
14611;SDS011;7392;52.078;11.650;2023-01-13T04:50:14;0.30;;;0.30;;
14611;SDS011;7392;52.078;11.650;2023-01-13T04:52:46;0.40;;;0.30;;
14611;SDS011;7392;52.078;11.650;2023-01-13T04:55:14;0.40;;;0.30;;
14611;SDS011;7392;52.078;11.650;2023-01-13T04:57:42;0.63;;;0.30;;
14611;SDS011;7392;52.078;11.650;2023-01-13T05:00:11;0.97;;;0.40;;
14611;SDS011;7392;52.078;11.650;2023-01-13T05:02:40;2.00;;;0.40;;
14611;SDS011;7392;52.078;11.650;2023-01-13T05:05:08;0.90;;;0.60;;
14611;SDS011;7392;52.078;11.650;2023-01-13T05:07:36;1.37;;;0.47;;
14611;SDS011;7392;52.078;11.650;2023-01-13T05:10:06;0.40;;;0.40;;
14611;SDS011;7392;52.078;11.650;2023-01-13T05:12:34;0.97;;;0.30;;
14611;SDS011;7392;52.078;11.650;2023-01-13T05:15:19;0.80;;;0.63;;
14611;SDS011;7392;52.078;11.650;2023-01-13T05:18:04;1.70;;;0.70;;
14611;SDS011;7392;52.078;11.650;2023-01-13T05:20:32;2.63;;;0.73;;
14611;SDS011;7392;52.078;11.650;2023-01-13T05:23:00;1.10;;;0.60;;
14611;SDS011;7392;52.078;11.650;2023-01-13T05:25:46;3.30;;;0.53;;
14611;SDS011;7392;52.078;11.650;2023-01-13T05:28:14;1.13;;;0.47;;
14611;SDS011;7392;52.078;11.650;2023-01-13T05:30:43;1.13;;;0.47;;
14611;SDS011;7392;52.078;11.650;2023-01-13T05:33:13;0.67;;;0.23;;
14611;SDS011;7392;52.078;11.650;2023-01-13T05:35:42;0.10;;;0.10;;
14611;SDS011;7392;52.078;11.650;2023-01-13T05:38:11;1.40;;;0.50;;
14611;SDS011;7392;52.078;11.650;2023-01-13T05:40:40;1.90;;;0.30;;
14611;SDS011;7392;52.078;11.650;2023-01-13T05:43:26;1.30;;;0.50;;
14611;SDS011;7392;52.078;11.650;2023-01-13T05:45:55;1.83;;;0.60;;
14611;SDS011;7392;52.078;11.650;2023-01-13T05:48:24;0.83;;;0.40;;
14611;SDS011;7392;52.078;11.650;2023-01-13T05:50:54;1.90;;;0.50;;
14611;SDS011;7392;52.078;11.650;2023-01-13T05:53:22;1.40;;;0.50;;
14611;SDS011;7392;52.078;11.650;2023-01-13T05:55:50;0.70;;;0.40;;
14611;SDS011;7392;52.078;11.650;2023-01-13T05:58:19;1.60;;;0.63;;
14611;SDS011;7392;52.078;11.650;2023-01-13T06:00:50;1.63;;;0.77;;
14611;SDS011;7392;52.078;11.650;2023-01-13T06:03:18;1.50;;;0.70;;
14611;SDS011;7392;52.078;11.650;2023-01-13T06:05:46;0.83;;;0.57;;
14611;SDS011;7392;52.078;11.650;2023-01-13T06:08:15;1.80;;;0.53;;
14611;SDS011;7392;52.078;11.650;2023-01-13T06:10:44;2.57;;;0.87;;
14611;SDS011;7392;52.078;11.650;2023-01-13T06:13:12;1.20;;;0.57;;
14611;SDS011;7392;52.078;11.650;2023-01-13T06:15:39;1.43;;;0.63;;
14611;SDS011;7392;52.078;11.650;2023-01-13T06:18:08;0.70;;;0.30;;
14611;SDS011;7392;52.078;11.650;2023-01-13T06:20:36;1.23;;;0.40;;
14611;SDS011;7392;52.078;11.650;2023-01-13T06:23:03;1.67;;;0.70;;
14611;SDS011;7392;52.078;11.650;2023-01-13T06:25:37;1.97;;;0.77;;
14611;SDS011;7392;52.078;11.650;2023-01-13T06:28:08;1.93;;;0.50;;
14611;SDS011;7392;52.078;11.650;2023-01-13T06:30:38;1.80;;;0.60;;
14611;SDS011;7392;52.078;11.650;2023-01-13T06:33:09;0.93;;;0.60;;
14611;SDS011;7392;52.078;11.650;2023-01-13T06:35:42;1.30;;;0.60;;
14611;SDS011;7392;52.078;11.650;2023-01-13T06:38:12;1.47;;;0.67;;
14611;SDS011;7392;52.078;11.650;2023-01-13T06:40:43;3.17;;;0.80;;
14611;SDS011;7392;52.078;11.650;2023-01-13T06:43:11;2.63;;;0.90;;
14611;SDS011;7392;52.078;11.650;2023-01-13T06:45:43;3.33;;;0.90;;
14611;SDS011;7392;52.078;11.650;2023-01-13T06:48:15;2.23;;;0.90;;
14611;SDS011;7392;52.078;11.650;2023-01-13T06:50:43;4.00;;;1.33;;
14611;SDS011;7392;52.078;11.650;2023-01-13T06:53:11;2.37;;;1.00;;
14611;SDS011;7392;52.078;11.650;2023-01-13T06:55:39;5.37;;;1.37;;
14611;SDS011;7392;52.078;11.650;2023-01-13T06:58:06;4.10;;;1.23;;
14611;SDS011;7392;52.078;11.650;2023-01-13T07:00:34;3.23;;;1.07;;
14611;SDS011;7392;52.078;11.650;2023-01-13T07:03:06;2.97;;;1.30;;
14611;SDS011;7392;52.078;11.650;2023-01-13T07:05:36;3.13;;;1.40;;
14611;SDS011;7392;52.078;11.650;2023-01-13T07:08:04;3.23;;;1.00;;
14611;SDS011;7392;52.078;11.650;2023-01-13T07:10:32;4.77;;;1.47;;
14611;SDS011;7392;52.078;11.650;2023-01-13T07:13:01;2.93;;;1.13;;
14611;SDS011;7392;52.078;11.650;2023-01-13T07:15:54;4.40;;;1.37;;
14611;SDS011;7392;52.078;11.650;2023-01-13T07:18:22;5.53;;;1.47;;
14611;SDS011;7392;52.078;11.650;2023-01-13T07:20:55;4.33;;;1.30;;
14611;SDS011;7392;52.078;11.650;2023-01-13T07:23:25;4.00;;;1.50;;
14611;SDS011;7392;52.078;11.650;2023-01-13T07:25:54;5.20;;;1.50;;
14611;SDS011;7392;52.078;11.650;2023-01-13T07:28:22;4.33;;;1.40;;
14611;SDS011;7392;52.078;11.650;2023-01-13T07:30:50;4.67;;;1.60;;
14611;SDS011;7392;52.078;11.650;2023-01-13T07:33:18;3.40;;;1.50;;
14611;SDS011;7392;52.078;11.650;2023-01-13T07:35:46;4.83;;;1.57;;
14611;SDS011;7392;52.078;11.650;2023-01-13T07:38:16;2.67;;;1.47;;
14611;SDS011;7392;52.078;11.650;2023-01-13T07:40:44;5.67;;;1.70;;
14611;SDS011;7392;52.078;11.650;2023-01-13T07:43:12;3.90;;;1.67;;
14611;SDS011;7392;52.078;11.650;2023-01-13T07:45:58;1.43;;;0.80;;
14611;SDS011;7392;52.078;11.650;2023-01-13T07:48:27;1.60;;;1.10;;
14611;SDS011;7392;52.078;11.650;2023-01-13T07:50:55;2.03;;;0.97;;
14611;SDS011;7392;52.078;11.650;2023-01-13T07:53:28;2.23;;;1.17;;
14611;SDS011;7392;52.078;11.650;2023-01-13T07:55:56;1.83;;;1.17;;
14611;SDS011;7392;52.078;11.650;2023-01-13T07:58:25;2.10;;;1.27;;
14611;SDS011;7392;52.078;11.650;2023-01-13T08:00:53;2.60;;;1.23;;
14611;SDS011;7392;52.078;11.650;2023-01-13T08:03:22;2.63;;;1.07;;
14611;SDS011;7392;52.078;11.650;2023-01-13T08:05:50;1.93;;;0.90;;
14611;SDS011;7392;52.078;11.650;2023-01-13T08:08:17;0.67;;;0.50;;
14611;SDS011;7392;52.078;11.650;2023-01-13T08:10:46;1.20;;;0.60;;
14611;SDS011;7392;52.078;11.650;2023-01-13T08:13:15;1.90;;;0.97;;
14611;SDS011;7392;52.078;11.650;2023-01-13T08:15:42;1.23;;;0.57;;
14611;SDS011;7392;52.078;11.650;2023-01-13T08:18:11;4.53;;;1.03;;
14611;SDS011;7392;52.078;11.650;2023-01-13T08:20:38;1.47;;;1.00;;
14611;SDS011;7392;52.078;11.650;2023-01-13T08:23:06;3.93;;;1.23;;
14611;SDS011;7392;52.078;11.650;2023-01-13T08:25:34;1.13;;;0.67;;
14611;SDS011;7392;52.078;11.650;2023-01-13T08:28:03;1.73;;;0.80;;
14611;SDS011;7392;52.078;11.650;2023-01-13T08:30:31;2.40;;;0.93;;
14611;SDS011;7392;52.078;11.650;2023-01-13T08:32:58;0.90;;;0.70;;
14611;SDS011;7392;52.078;11.650;2023-01-13T08:35:26;1.17;;;0.70;;
14611;SDS011;7392;52.078;11.650;2023-01-13T08:37:54;1.63;;;0.63;;
14611;SDS011;7392;52.078;11.650;2023-01-13T08:40:23;2.93;;;0.80;;
14611;SDS011;7392;52.078;11.650;2023-01-13T08:42:50;1.43;;;0.70;;
14611;SDS011;7392;52.078;11.650;2023-01-13T08:45:20;2.13;;;1.00;;
14611;SDS011;7392;52.078;11.650;2023-01-13T08:47:48;4.00;;;1.00;;
14611;SDS011;7392;52.078;11.650;2023-01-13T08:50:15;2.03;;;0.70;;
14611;SDS011;7392;52.078;11.650;2023-01-13T08:52:43;3.10;;;0.80;;
14611;SDS011;7392;52.078;11.650;2023-01-13T08:55:11;1.80;;;0.80;;
14611;SDS011;7392;52.078;11.650;2023-01-13T08:57:39;2.13;;;0.80;;
14611;SDS011;7392;52.078;11.650;2023-01-13T09:00:07;2.23;;;1.10;;
14611;SDS011;7392;52.078;11.650;2023-01-13T09:02:37;3.03;;;1.23;;
14611;SDS011;7392;52.078;11.650;2023-01-13T09:05:05;4.83;;;1.20;;
14611;SDS011;7392;52.078;11.650;2023-01-13T09:07:33;4.47;;;1.07;;
14611;SDS011;7392;52.078;11.650;2023-01-13T09:10:02;4.80;;;1.83;;
14611;SDS011;7392;52.078;11.650;2023-01-13T09:12:30;2.57;;;0.90;;
14611;SDS011;7392;52.078;11.650;2023-01-13T09:15:27;2.10;;;1.00;;
14611;SDS011;7392;52.078;11.650;2023-01-13T09:17:56;2.87;;;0.80;;
14611;SDS011;7392;52.078;11.650;2023-01-13T09:20:23;5.10;;;1.17;;
14611;SDS011;7392;52.078;11.650;2023-01-13T09:22:51;3.53;;;1.10;;
14611;SDS011;7392;52.078;11.650;2023-01-13T09:25:18;2.83;;;0.90;;
14611;SDS011;7392;52.078;11.650;2023-01-13T09:27:46;3.20;;;1.00;;
14611;SDS011;7392;52.078;11.650;2023-01-13T09:30:14;3.67;;;1.03;;
14611;SDS011;7392;52.078;11.650;2023-01-13T09:32:42;4.03;;;1.00;;
14611;SDS011;7392;52.078;11.650;2023-01-13T09:35:10;2.70;;;0.60;;
14611;SDS011;7392;52.078;11.650;2023-01-13T09:37:38;1.77;;;0.90;;
14611;SDS011;7392;52.078;11.650;2023-01-13T09:40:08;1.73;;;0.80;;
14611;SDS011;7392;52.078;11.650;2023-01-13T09:42:42;2.27;;;0.73;;
14611;SDS011;7392;52.078;11.650;2023-01-13T09:45:35;1.63;;;0.80;;
14611;SDS011;7392;52.078;11.650;2023-01-13T09:48:08;2.60;;;1.00;;
14611;SDS011;7392;52.078;11.650;2023-01-13T09:50:52;3.50;;;0.80;;
14611;SDS011;7392;52.078;11.650;2023-01-13T09:53:27;2.40;;;0.90;;
14611;SDS011;7392;52.078;11.650;2023-01-13T09:55:57;2.67;;;1.00;;
14611;SDS011;7392;52.078;11.650;2023-01-13T09:58:24;1.67;;;1.07;;
14611;SDS011;7392;52.078;11.650;2023-01-13T10:00:58;1.97;;;1.13;;
14611;SDS011;7392;52.078;11.650;2023-01-13T10:03:32;5.07;;;1.37;;
14611;SDS011;7392;52.078;11.650;2023-01-13T10:06:04;4.97;;;1.00;;
14611;SDS011;7392;52.078;11.650;2023-01-13T10:08:40;2.40;;;0.90;;
14611;SDS011;7392;52.078;11.650;2023-01-13T10:11:10;4.30;;;1.10;;
14611;SDS011;7392;52.078;11.650;2023-01-13T10:13:55;6.17;;;1.27;;
14611;SDS011;7392;52.078;11.650;2023-01-13T10:16:29;3.37;;;0.87;;
14611;SDS011;7392;52.078;11.650;2023-01-13T10:19:03;3.80;;;1.30;;
14611;SDS011;7392;52.078;11.650;2023-01-13T10:21:46;2.17;;;1.10;;
14611;SDS011;7392;52.078;11.650;2023-01-13T10:24:28;3.13;;;1.13;;
14611;SDS011;7392;52.078;11.650;2023-01-13T10:29:51;4.47;;;1.30;;
14611;SDS011;7392;52.078;11.650;2023-01-13T10:32:18;3.57;;;1.10;;
14611;SDS011;7392;52.078;11.650;2023-01-13T10:34:46;3.90;;;1.10;;
14611;SDS011;7392;52.078;11.650;2023-01-13T10:37:21;6.40;;;1.37;;
14611;SDS011;7392;52.078;11.650;2023-01-13T10:39:53;3.07;;;1.00;;
14611;SDS011;7392;52.078;11.650;2023-01-13T10:42:22;3.97;;;1.40;;
14611;SDS011;7392;52.078;11.650;2023-01-13T10:44:51;4.00;;;1.27;;
14611;SDS011;7392;52.078;11.650;2023-01-13T10:47:23;2.93;;;1.07;;
14611;SDS011;7392;52.078;11.650;2023-01-13T10:49:59;4.17;;;1.60;;
14611;SDS011;7392;52.078;11.650;2023-01-13T10:52:36;4.90;;;1.40;;
14611;SDS011;7392;52.078;11.650;2023-01-13T10:55:21;3.50;;;1.30;;
14611;SDS011;7392;52.078;11.650;2023-01-13T10:57:52;3.90;;;1.20;;
14611;SDS011;7392;52.078;11.650;2023-01-13T11:00:27;3.30;;;1.40;;
14611;SDS011;7392;52.078;11.650;2023-01-13T11:03:11;7.07;;;1.23;;
14611;SDS011;7392;52.078;11.650;2023-01-13T11:05:48;5.80;;;1.20;;
14611;SDS011;7392;52.078;11.650;2023-01-13T11:08:20;4.33;;;1.60;;
14611;SDS011;7392;52.078;11.650;2023-01-13T11:10:50;3.27;;;1.17;;
14611;SDS011;7392;52.078;11.650;2023-01-13T11:13:21;3.70;;;1.13;;
14611;SDS011;7392;52.078;11.650;2023-01-13T11:15:55;3.87;;;1.30;;
14611;SDS011;7392;52.078;11.650;2023-01-13T11:18:28;5.87;;;1.27;;
14611;SDS011;7392;52.078;11.650;2023-01-13T11:21:02;5.57;;;2.17;;
14611;SDS011;7392;52.078;11.650;2023-01-13T11:23:36;6.07;;;2.73;;
14611;SDS011;7392;52.078;11.650;2023-01-13T11:26:09;9.83;;;5.90;;
14611;SDS011;7392;52.078;11.650;2023-01-13T11:28:46;10.77;;;4.73;;
14611;SDS011;7392;52.078;11.650;2023-01-13T11:31:21;6.20;;;3.60;;
14611;SDS011;7392;52.078;11.650;2023-01-13T11:33:58;6.17;;;3.10;;
14611;SDS011;7392;52.078;11.650;2023-01-13T11:36:30;6.63;;;2.47;;
14611;SDS011;7392;52.078;11.650;2023-01-13T11:39:09;6.10;;;2.03;;
14611;SDS011;7392;52.078;11.650;2023-01-13T11:41:45;4.30;;;1.80;;
14611;SDS011;7392;52.078;11.650;2023-01-13T11:44:39;6.17;;;2.10;;
14611;SDS011;7392;52.078;11.650;2023-01-13T11:47:12;5.17;;;1.67;;
14611;SDS011;7392;52.078;11.650;2023-01-13T11:49:40;4.70;;;1.60;;
14611;SDS011;7392;52.078;11.650;2023-01-13T11:52:15;3.97;;;1.57;;
14611;SDS011;7392;52.078;11.650;2023-01-13T11:54:54;4.40;;;1.27;;
14611;SDS011;7392;52.078;11.650;2023-01-13T11:57:38;2.60;;;1.10;;
14611;SDS011;7392;52.078;11.650;2023-01-13T12:00:25;4.20;;;1.30;;
14611;SDS011;7392;52.078;11.650;2023-01-13T12:05:57;3.00;;;1.37;;
14611;SDS011;7392;52.078;11.650;2023-01-13T12:11:37;3.40;;;1.20;;
14611;SDS011;7392;52.078;11.650;2023-01-13T12:14:34;5.80;;;1.43;;
14611;SDS011;7392;52.078;11.650;2023-01-13T12:17:14;4.27;;;1.50;;
14611;SDS011;7392;52.078;11.650;2023-01-13T12:19:47;5.47;;;1.50;;
14611;SDS011;7392;52.078;11.650;2023-01-13T12:22:17;4.73;;;1.47;;
14611;SDS011;7392;52.078;11.650;2023-01-13T12:24:50;3.57;;;1.47;;
14611;SDS011;7392;52.078;11.650;2023-01-13T12:27:23;3.83;;;1.37;;
14611;SDS011;7392;52.078;11.650;2023-01-13T12:30:11;4.60;;;1.23;;
14611;SDS011;7392;52.078;11.650;2023-01-13T12:32:48;4.60;;;1.40;;
14611;SDS011;7392;52.078;11.650;2023-01-13T12:35:21;5.10;;;1.40;;
14611;SDS011;7392;52.078;11.650;2023-01-13T12:38:02;6.20;;;1.43;;
14611;SDS011;7392;52.078;11.650;2023-01-13T12:40:42;5.47;;;1.27;;
14611;SDS011;7392;52.078;11.650;2023-01-13T12:43:18;4.07;;;1.53;;
14611;SDS011;7392;52.078;11.650;2023-01-13T12:49:27;3.53;;;1.60;;
14611;SDS011;7392;52.078;11.650;2023-01-13T12:52:02;7.73;;;1.50;;
14611;SDS011;7392;52.078;11.650;2023-01-13T12:57:35;2.93;;;1.47;;
14611;SDS011;7392;52.078;11.650;2023-01-13T13:05:55;4.37;;;1.67;;
14611;SDS011;7392;52.078;11.650;2023-01-13T13:11:20;5.97;;;1.40;;
14611;SDS011;7392;52.078;11.650;2023-01-13T13:17:39;3.70;;;1.27;;
14611;SDS011;7392;52.078;11.650;2023-01-13T13:20:50;3.53;;;1.57;;
14611;SDS011;7392;52.078;11.650;2023-01-13T13:23:27;4.37;;;1.50;;
14611;SDS011;7392;52.078;11.650;2023-01-13T13:26:02;7.20;;;1.87;;
14611;SDS011;7392;52.078;11.650;2023-01-13T13:28:40;4.97;;;1.50;;
14611;SDS011;7392;52.078;11.650;2023-01-13T13:31:28;3.60;;;1.30;;
14611;SDS011;7392;52.078;11.650;2023-01-13T13:34:09;4.77;;;1.47;;
14611;SDS011;7392;52.078;11.650;2023-01-13T13:36:49;3.60;;;1.20;;
14611;SDS011;7392;52.078;11.650;2023-01-13T13:39:27;4.53;;;1.37;;
14611;SDS011;7392;52.078;11.650;2023-01-13T13:42:15;3.73;;;1.50;;
14611;SDS011;7392;52.078;11.650;2023-01-13T13:45:25;3.93;;;1.30;;
14611;SDS011;7392;52.078;11.650;2023-01-13T13:48:18;4.00;;;1.40;;
14611;SDS011;7392;52.078;11.650;2023-01-13T13:50:47;4.97;;;1.43;;
14611;SDS011;7392;52.078;11.650;2023-01-13T13:53:16;3.53;;;1.43;;
14611;SDS011;7392;52.078;11.650;2023-01-13T13:55:54;4.07;;;1.43;;
14611;SDS011;7392;52.078;11.650;2023-01-13T13:58:24;5.00;;;1.27;;
14611;SDS011;7392;52.078;11.650;2023-01-13T14:00:54;4.43;;;1.13;;
14611;SDS011;7392;52.078;11.650;2023-01-13T14:03:23;4.73;;;1.50;;
14611;SDS011;7392;52.078;11.650;2023-01-13T14:05:53;3.57;;;1.40;;
14611;SDS011;7392;52.078;11.650;2023-01-13T14:08:23;2.77;;;1.10;;
14611;SDS011;7392;52.078;11.650;2023-01-13T14:10:51;2.83;;;1.07;;
14611;SDS011;7392;52.078;11.650;2023-01-13T14:13:21;2.23;;;0.97;;
14611;SDS011;7392;52.078;11.650;2023-01-13T14:15:54;3.63;;;1.17;;
14611;SDS011;7392;52.078;11.650;2023-01-13T14:18:23;3.07;;;1.10;;
14611;SDS011;7392;52.078;11.650;2023-01-13T14:20:53;3.13;;;1.13;;
14611;SDS011;7392;52.078;11.650;2023-01-13T14:23:24;1.80;;;0.87;;
14611;SDS011;7392;52.078;11.650;2023-01-13T14:25:53;3.23;;;1.03;;
14611;SDS011;7392;52.078;11.650;2023-01-13T14:28:25;3.63;;;1.40;;
14611;SDS011;7392;52.078;11.650;2023-01-13T14:30:54;4.03;;;1.67;;
14611;SDS011;7392;52.078;11.650;2023-01-13T14:33:25;6.17;;;1.57;;
14611;SDS011;7392;52.078;11.650;2023-01-13T14:36:10;4.97;;;1.50;;
14611;SDS011;7392;52.078;11.650;2023-01-13T14:38:40;4.77;;;1.20;;
14611;SDS011;7392;52.078;11.650;2023-01-13T14:41:10;3.93;;;1.30;;
14611;SDS011;7392;52.078;11.650;2023-01-13T14:43:43;5.17;;;1.57;;
14611;SDS011;7392;52.078;11.650;2023-01-13T14:46:13;4.17;;;1.87;;
14611;SDS011;7392;52.078;11.650;2023-01-13T14:48:42;4.30;;;1.60;;
14611;SDS011;7392;52.078;11.650;2023-01-13T14:51:19;6.77;;;2.00;;
14611;SDS011;7392;52.078;11.650;2023-01-13T14:53:49;4.47;;;1.60;;
14611;SDS011;7392;52.078;11.650;2023-01-13T14:56:36;6.87;;;1.60;;
14611;SDS011;7392;52.078;11.650;2023-01-13T15:02:27;5.03;;;1.60;;
14611;SDS011;7392;52.078;11.650;2023-01-13T15:08:25;5.90;;;1.40;;
14611;SDS011;7392;52.078;11.650;2023-01-13T15:10:55;5.73;;;1.80;;
14611;SDS011;7392;52.078;11.650;2023-01-13T15:13:36;5.07;;;1.73;;
14611;SDS011;7392;52.078;11.650;2023-01-13T15:16:21;6.07;;;1.30;;
14611;SDS011;7392;52.078;11.650;2023-01-13T15:18:51;3.70;;;1.33;;
14611;SDS011;7392;52.078;11.650;2023-01-13T15:21:19;5.93;;;1.67;;
14611;SDS011;7392;52.078;11.650;2023-01-13T15:23:48;4.40;;;1.40;;
14611;SDS011;7392;52.078;11.650;2023-01-13T15:26:16;4.63;;;1.63;;
14611;SDS011;7392;52.078;11.650;2023-01-13T15:28:46;6.70;;;1.90;;
14611;SDS011;7392;52.078;11.650;2023-01-13T15:31:16;2.97;;;1.20;;
14611;SDS011;7392;52.078;11.650;2023-01-13T15:33:45;4.87;;;1.70;;
14611;SDS011;7392;52.078;11.650;2023-01-13T15:36:17;5.83;;;2.13;;
14611;SDS011;7392;52.078;11.650;2023-01-13T15:38:47;7.77;;;2.07;;
14611;SDS011;7392;52.078;11.650;2023-01-13T15:41:15;5.30;;;2.03;;
14611;SDS011;7392;52.078;11.650;2023-01-13T15:43:43;4.47;;;1.47;;
14611;SDS011;7392;52.078;11.650;2023-01-13T15:46:28;5.20;;;1.57;;
14611;SDS011;7392;52.078;11.650;2023-01-13T15:49:09;5.87;;;1.60;;
14611;SDS011;7392;52.078;11.650;2023-01-13T15:51:43;4.23;;;1.50;;
14611;SDS011;7392;52.078;11.650;2023-01-13T15:54:11;3.83;;;1.70;;
14611;SDS011;7392;52.078;11.650;2023-01-13T15:56:39;6.33;;;1.60;;
14611;SDS011;7392;52.078;11.650;2023-01-13T15:59:09;4.33;;;1.60;;